Time;durP1;ratioP1;P1;durP2;ratioP2;P2;SDS_P1;SDS_P2;PMS_P1;PMS_P2;Temp;Humidity;BMP_temperature;BMP_pressure;BME280_temperature;BME280_humidity;BME280_pressure;Samples;Min_cycle;Max_cycle;Signal;HPM_P1;HPM_P2
2022/12/09 05:02:39;;;;;;;16.67;10.33;;;-0.40;99.90;;;-0.97;nan;96955.16;4945985;29;20589;-75
2022/12/09 05:05:07;;;;;;;17.03;9.90;;;-0.40;99.90;;;-1.01;nan;96953.31;4947393;29;20468;-75
2022/12/09 05:07:34;;;;;;;17.80;10.00;;;-0.50;99.90;;;-1.08;nan;96948.78;4946734;28;20906;-75
2022/12/09 05:10:00;;;;;;;15.17;9.23;;;-0.50;99.90;;;-1.09;nan;96947.94;4947306;29;20461;-75
2022/12/09 05:12:27;;;;;;;23.90;12.13;;;-0.50;99.90;;;-1.10;nan;96943.69;4947346;28;20473;-75
2022/12/09 05:14:54;;;;;;;20.43;10.97;;;-0.40;99.90;;;-1.10;nan;96940.31;4947054;28;20463;-75
2022/12/09 05:17:21;;;;;;;19.20;10.13;;;-0.50;99.90;;;-1.06;nan;96932.06;4946756;28;20465;-75
2022/12/09 05:19:50;;;;;;;17.57;10.60;;;-0.50;99.90;;;-1.07;nan;96932.88;4947371;28;20458;-75
2022/12/09 05:22:17;;;;;;;16.23;9.10;;;-0.40;99.90;;;-1.03;nan;96935.56;4947458;28;20485;-74
2022/12/09 05:24:45;;;;;;;14.23;8.40;;;-0.40;99.90;;;-1.03;nan;96930.53;4948165;28;20979;-75
2022/12/09 05:27:13;;;;;;;13.90;8.97;;;-0.40;99.90;;;-0.99;nan;96934.94;4948013;28;20487;-75
2022/12/09 05:29:41;;;;;;;18.23;10.23;;;-0.40;99.90;;;-1.02;nan;96937.34;4950435;28;20457;-75
2022/12/09 05:32:08;;;;;;;17.60;11.70;;;-0.40;99.90;;;-1.00;nan;96925.66;4951637;28;20524;-75
2022/12/09 05:34:35;;;;;;;18.00;10.40;;;-0.40;99.90;;;-1.01;nan;96928.09;4952282;28;20449;-75
2022/12/09 05:37:03;;;;;;;19.20;9.90;;;-0.40;99.90;;;-0.98;nan;96930.75;4951545;28;20464;-75
2022/12/09 05:39:30;;;;;;;17.30;10.37;;;-0.40;99.90;;;-0.97;nan;96922.38;4952031;28;20457;-75
2022/12/09 05:41:57;;;;;;;15.80;10.47;;;-0.40;99.90;;;-0.94;nan;96917.47;4952083;28;20473;-75
2022/12/09 05:44:24;;;;;;;13.73;9.70;;;-0.30;99.90;;;-0.91;nan;96923.53;4951732;28;20484;-75
2022/12/09 05:46:51;;;;;;;17.30;10.47;;;-0.30;99.90;;;-0.91;nan;96915.94;4951197;28;20461;-75
2022/12/09 05:49:18;;;;;;;17.60;10.90;;;-0.30;99.90;;;-0.92;nan;96914.22;4952079;28;20473;-74
2022/12/09 05:51:45;;;;;;;15.93;9.77;;;-0.30;99.90;;;-1.01;nan;96913.84;4951349;28;20512;-66
2022/12/09 05:54:13;;;;;;;14.80;10.37;;;-0.30;99.90;;;-0.98;nan;96913.97;4950890;28;20461;-66
2022/12/09 05:56:40;;;;;;;16.63;10.33;;;-0.30;99.90;;;-1.01;nan;96908.78;4950068;28;20464;-66
2022/12/09 05:59:09;;;;;;;18.87;10.90;;;-0.30;99.90;;;-1.03;nan;96907.84;4952184;28;20453;-77
2022/12/09 06:01:36;;;;;;;14.20;9.57;;;-0.30;99.90;;;-0.97;nan;96897.16;4952935;28;20473;-76
2022/12/09 06:04:03;;;;;;;15.63;9.80;;;-0.30;99.90;;;-0.92;nan;96893.16;4953093;29;20466;-76
2022/12/09 06:06:30;;;;;;;22.63;10.70;;;-0.30;99.90;;;-0.92;nan;96893.16;4951549;29;20457;-77
2022/12/09 06:09:00;;;;;;;14.73;9.20;;;-0.30;99.90;;;-0.89;nan;96889.13;4936563;28;20457;-77
2022/12/09 06:11:28;;;;;;;15.30;10.13;;;-0.30;99.90;;;-0.87;nan;96886.66;4934179;29;20858;-77
2022/12/09 06:13:55;;;;;;;13.50;8.93;;;-0.30;99.90;;;-0.87;nan;96896.75;4933913;29;20466;-76
2022/12/09 06:16:23;;;;;;;18.80;11.33;;;-0.30;99.90;;;-0.93;nan;96886.41;4932959;29;20450;-76
2022/12/09 06:18:50;;;;;;;15.23;9.67;;;-0.30;99.90;;;-0.89;nan;96888.28;4933729;29;20457;-76
2022/12/09 06:21:19;;;;;;;17.37;10.50;;;-0.30;99.90;;;-0.90;nan;96891.59;4933178;29;21040;-76
2022/12/09 06:23:48;;;;;;;15.27;9.17;;;-0.30;99.90;;;-0.88;nan;96884.94;4933777;29;20521;-76
2022/12/09 06:26:18;;;;;;;17.77;10.20;;;-0.30;99.90;;;-0.97;nan;96879.50;4932683;29;20472;-76
2022/12/09 06:28:47;;;;;;;19.13;10.90;;;-0.30;99.90;;;-0.99;nan;96887.03;4933481;29;20805;-76
2022/12/09 06:31:15;;;;;;;13.87;9.73;;;-0.30;99.90;;;-0.96;nan;96883.75;4933872;29;20502;-76
2022/12/09 06:33:42;;;;;;;16.50;10.00;;;-0.30;99.90;;;-0.96;nan;96881.22;4934038;29;20990;-76
2022/12/09 06:36:10;;;;;;;19.13;10.67;;;-0.30;99.90;;;-0.93;nan;96877.16;4933751;29;20977;-76
2022/12/09 06:38:37;;;;;;;18.93;11.07;;;-0.30;99.90;;;-0.90;nan;96877.31;4932605;29;20454;-76
2022/12/09 06:41:08;;;;;;;19.33;10.50;;;-0.30;99.90;;;-0.90;nan;96881.50;4933098;29;20492;-76
2022/12/09 06:43:36;;;;;;;16.87;10.87;;;-0.30;99.90;;;-0.89;nan;96888.28;4932949;29;20497;-76
2022/12/09 06:46:11;;;;;;;18.00;11.07;;;-0.30;99.90;;;-0.88;nan;96877.38;4932948;29;20981;-77
2022/12/09 06:48:38;;;;;;;21.90;11.20;;;-0.30;99.90;;;-0.84;nan;96884.25;4933873;29;20462;-77
2022/12/09 06:51:06;;;;;;;19.70;11.87;;;-0.30;99.90;;;-0.82;nan;96879.28;4931846;29;21366;-76
2022/12/09 06:53:36;;;;;;;20.30;11.87;;;-0.20;99.90;;;-0.80;nan;96878.56;4932993;29;20459;-76
2022/12/09 06:56:06;;;;;;;19.63;12.03;;;-0.20;99.90;;;-0.80;nan;96877.72;4931962;29;20899;-76
2022/12/09 06:58:33;;;;;;;19.13;12.00;;;-0.20;99.90;;;-0.77;nan;96885.41;4932498;29;20463;-76
2022/12/09 07:01:12;;;;;;;18.80;11.57;;;-0.20;99.90;;;-0.73;nan;96893.13;4931904;29;20482;-75
2022/12/09 07:03:39;;;;;;;21.70;13.00;;;-0.10;99.90;;;-0.71;nan;96889.03;4931861;29;20492;-76
2022/12/09 07:06:07;;;;;;;18.80;12.50;;;-0.10;99.90;;;-0.70;nan;96890.78;4930715;29;20462;-76
2022/12/09 07:08:34;;;;;;;22.30;14.40;;;-0.10;99.90;;;-0.72;nan;96894.00;4931361;29;21001;-76
2022/12/09 07:11:01;;;;;;;20.67;13.17;;;-0.10;99.90;;;-0.72;nan;96878.88;4931177;29;20513;-76
2022/12/09 07:13:28;;;;;;;19.13;12.27;;;-0.10;99.90;;;-0.70;nan;96878.16;4930213;29;20816;-76
2022/12/09 07:15:55;;;;;;;19.17;11.87;;;-0.10;99.90;;;-0.63;nan;96889.34;4929521;29;20473;-76
2022/12/09 07:18:23;;;;;;;19.77;12.13;;;-0.10;99.90;;;-0.67;nan;96897.59;4929979;29;20473;-76
2022/12/09 07:20:50;;;;;;;20.90;11.73;;;0.00;99.90;;;-0.73;nan;96893.13;4931375;29;20510;-78
2022/12/09 07:23:17;;;;;;;22.83;13.27;;;-0.10;99.90;;;-0.69;nan;96896.69;4932797;29;20454;-79
2022/12/09 07:25:44;;;;;;;19.97;13.27;;;-0.10;99.90;;;-0.69;nan;96889.09;4933972;29;20497;-78
2022/12/09 07:28:11;;;;;;;24.27;13.03;;;-0.10;99.90;;;-0.70;nan;96892.44;4933393;29;20811;-78
2022/12/09 07:30:38;;;;;;;20.17;13.30;;;0.00;99.90;;;-0.65;nan;96896.84;4933347;29;20481;-77
2022/12/09 07:33:05;;;;;;;74.37;40.27;;;0.00;99.90;;;-0.59;nan;96897.13;4932692;29;20836;-76
2022/12/09 07:35:34;;;;;;;62.63;28.00;;;0.00;99.90;;;-0.64;nan;96892.66;4931381;29;20803;-77
2022/12/09 07:38:01;;;;;;;54.20;27.73;;;0.00;99.90;;;-0.65;nan;96883.38;4931141;29;20462;-76
2022/12/09 07:40:28;;;;;;;36.77;19.57;;;0.00;99.90;;;-0.62;nan;96886.88;4931699;29;21299;-76
2022/12/09 07:42:55;;;;;;;24.63;15.43;;;0.00;99.90;;;-0.60;nan;96887.81;4932651;29;20450;-77
2022/12/09 07:45:22;;;;;;;27.30;15.77;;;0.00;99.90;;;-0.57;nan;96879.50;4931261;29;20574;-76
2022/12/09 07:47:49;;;;;;;25.83;14.70;;;0.00;99.90;;;-0.57;nan;96876.97;4931549;29;20462;-76
2022/12/09 07:50:16;;;;;;;22.93;14.00;;;0.10;99.90;;;-0.53;nan;96873.78;4930516;29;20458;-75
2022/12/09 07:52:45;;;;;;;27.30;15.37;;;0.10;99.90;;;-0.53;nan;96881.34;4930111;29;20494;-77
2022/12/09 07:55:12;;;;;;;22.50;13.50;;;0.10;99.90;;;-0.48;nan;96873.97;4930099;29;20486;-76
2022/12/09 07:57:39;;;;;;;22.13;13.60;;;0.20;99.90;;;-0.45;nan;96869.03;4929388;29;20470;-78
2022/12/09 08:00:08;;;;;;;24.50;13.47;;;0.20;99.90;;;-0.42;nan;96867.50;4931301;29;20462;-78
2022/12/09 08:02:35;;;;;;;22.63;14.07;;;0.20;99.90;;;-0.39;nan;96872.69;4929131;29;21043;-77
2022/12/09 08:05:02;;;;;;;23.73;13.57;;;0.20;99.90;;;-0.34;nan;96872.84;4928648;29;20458;-76
2022/12/09 08:07:29;;;;;;;24.87;14.10;;;0.30;99.90;;;-0.23;nan;96865.69;4929922;29;20460;-77
2022/12/09 08:09:57;;;;;;;26.20;14.47;;;0.30;99.90;;;-0.21;nan;96872.53;4930871;29;20468;-77
2022/12/09 08:12:24;;;;;;;22.10;14.13;;;0.40;99.90;;;-0.36;nan;96861.84;4930260;29;20510;-77
2022/12/09 08:14:51;;;;;;;25.37;15.50;;;0.40;99.90;;;-0.31;nan;96863.75;4931039;29;20459;-77
2022/12/09 08:17:18;;;;;;;23.70;14.90;;;0.40;99.90;;;-0.32;nan;96864.53;4930405;29;20470;-76
2022/12/09 08:19:47;;;;;;;27.83;14.87;;;0.40;99.90;;;-0.19;nan;96865.91;4930722;29;21209;-77
2022/12/09 08:22:14;;;;;;;27.07;14.30;;;0.40;99.90;;;-0.15;nan;96866.88;4930725;29;20691;-77
2022/12/09 08:24:41;;;;;;;23.47;13.53;;;0.50;99.90;;;-0.19;nan;96862.50;4929965;29;20478;-67
2022/12/09 08:27:09;;;;;;;22.97;13.77;;;0.50;99.90;;;-0.19;nan;96860.84;4928688;29;21129;-77
2022/12/09 08:29:36;;;;;;;25.87;14.77;;;0.50;99.90;;;-0.17;nan;96863.44;4930985;29;20450;-77
2022/12/09 08:32:03;;;;;;;24.33;15.03;;;0.50;99.90;;;-0.15;nan;96859.28;4931310;29;20591;-77
2022/12/09 08:34:30;;;;;;;26.83;15.60;;;0.50;99.90;;;-0.08;nan;96858.75;4931012;29;21017;-77
2022/12/09 08:36:57;;;;;;;25.70;16.20;;;0.60;99.90;;;0.02;nan;96857.44;4929843;29;20458;-77
2022/12/09 08:39:24;;;;;;;28.70;17.00;;;0.60;99.90;;;0.12;nan;96855.31;4929723;29;20454;-77
2022/12/09 08:41:51;;;;;;;28.93;17.40;;;0.70;99.90;;;0.21;nan;96849.75;4930608;29;20466;-77
2022/12/09 08:44:21;;;;;;;36.60;19.03;;;0.70;99.90;;;0.21;nan;96842.16;4930748;29;20454;-77
2022/12/09 08:46:51;;;;;;;29.90;16.93;;;0.80;99.90;;;0.19;nan;96846.28;4930549;29;20494;-77
2022/12/09 08:49:21;;;;;;;29.70;17.37;;;0.80;99.90;;;0.21;nan;96847.22;4930805;29;20463;-77
2022/12/09 08:51:51;;;;;;;24.23;15.90;;;0.80;99.90;;;0.21;nan;96843.03;4930442;29;20498;-77
2022/12/09 08:54:18;;;;;;;29.07;17.50;;;0.80;99.90;;;0.18;nan;96842.88;4930485;29;20838;-77
2022/12/09 08:56:46;;;;;;;33.07;17.07;;;0.80;99.90;;;0.22;nan;96837.16;4929980;29;20466;-76
2022/12/09 08:59:15;;;;;;;27.63;16.07;;;0.90;99.90;;;0.25;nan;96839.78;4930027;29;21108;-76
2022/12/09 09:01:44;;;;;;;27.00;15.83;;;0.90;99.90;;;0.31;nan;96849.28;4930486;29;20486;-76
2022/12/09 09:04:15;;;;;;;30.13;17.17;;;0.90;99.90;;;0.33;nan;96841.75;4930820;29;20454;-78
2022/12/09 09:06:47;;;;;;;26.53;15.60;;;1.00;99.90;;;0.45;nan;96837.13;4930255;29;20548;-76
2022/12/09 09:09:15;;;;;;;31.27;16.80;;;1.00;99.90;;;0.41;nan;96842.88;4930758;29;20466;-77
2022/12/09 09:11:43;;;;;;;29.50;16.97;;;1.00;99.90;;;0.35;nan;96830.03;4930181;29;20508;-76
2022/12/09 09:14:13;;;;;;;34.20;19.03;;;1.00;99.90;;;0.42;nan;96837.91;4931810;29;20844;-76
2022/12/09 09:16:43;;;;;;;31.53;17.83;;;1.10;99.90;;;0.49;nan;96836.44;4930403;29;20454;-75
2022/12/09 09:19:15;;;;;;;27.13;17.20;;;1.10;99.90;;;0.50;nan;96825.50;4931437;29;20844;-75
2022/12/09 09:21:42;;;;;;;32.40;17.90;;;1.10;99.90;;;0.60;nan;96829.22;4931428;29;20979;-75
2022/12/09 09:24:11;;;;;;;26.47;16.60;;;1.20;99.90;;;0.59;nan;96830.91;4931090;29;20461;-76
2022/12/09 09:26:41;;;;;;;30.53;18.07;;;1.20;99.90;;;0.67;nan;96824.44;4931029;29;20974;-75
2022/12/09 09:29:10;;;;;;;30.73;16.90;;;1.20;99.90;;;0.68;nan;96822.78;4931294;29;21164;-75
2022/12/09 09:31:37;;;;;;;28.97;15.50;;;1.30;99.90;;;0.74;nan;96830.59;4930739;29;20506;-75
2022/12/09 09:34:06;;;;;;;29.77;17.63;;;1.30;99.90;;;0.79;nan;96829.94;4930791;29;20826;-75
2022/12/09 09:36:33;;;;;;;31.37;17.87;;;1.40;99.90;;;0.87;nan;96827.66;4930874;29;20465;-75
2022/12/09 09:39:00;;;;;;;26.10;17.67;;;1.40;99.90;;;0.92;nan;96821.13;4930523;29;20947;-75
2022/12/09 09:41:47;;;;;;;31.07;17.77;;;1.50;99.90;;;0.89;nan;96823.50;4930940;29;20478;-75
2022/12/09 09:44:23;;;;;;;30.37;17.47;;;1.50;99.90;;;0.87;nan;96832.72;4930336;29;20971;-75
2022/12/09 09:46:54;;;;;;;26.83;16.90;;;1.50;99.90;;;0.88;nan;96821.81;4930475;29;20438;-75
2022/12/09 09:49:33;;;;;;;26.00;15.63;;;1.50;99.90;;;0.88;nan;96818.41;4929743;29;20454;-75
2022/12/09 09:52:07;;;;;;;29.00;17.63;;;1.50;99.90;;;1.00;nan;96817.16;4929524;29;20865;-75
2022/12/09 09:54:35;;;;;;;27.57;16.30;;;1.60;99.90;;;1.04;nan;96813.06;4929137;29;20933;-75
2022/12/09 09:57:13;;;;;;;27.10;16.00;;;1.60;99.90;;;1.10;nan;96818.31;4928924;29;20455;-75
2022/12/09 09:59:59;;;;;;;29.13;17.20;;;1.70;99.90;;;1.15;nan;96810.09;4928122;29;20462;-75
2022/12/09 10:02:48;;;;;;;27.93;16.83;;;1.70;99.90;;;1.10;nan;96819.19;4929443;29;20485;-75
2022/12/09 10:05:24;;;;;;;31.87;17.50;;;1.70;99.90;;;1.14;nan;96805.84;4931548;29;20462;-75
2022/12/09 10:07:56;;;;;;;28.13;16.47;;;1.70;99.90;;;1.23;nan;96806.97;4929642;29;20513;-75
2022/12/09 10:10:41;;;;;;;30.10;16.87;;;1.80;99.90;;;1.25;nan;96796.06;4927654;29;20450;-77
2022/12/09 10:13:36;;;;;;;27.60;16.63;;;1.80;99.90;;;1.25;nan;96787.63;4927984;29;20569;-77
2022/12/09 10:16:14;;;;;;;26.17;16.53;;;1.80;99.90;;;1.26;nan;96792.72;4930140;29;20443;-77
2022/12/09 10:18:59;;;;;;;28.37;15.40;;;1.90;99.90;;;1.20;nan;96789.97;4931205;29;20458;-78
2022/12/09 10:21:32;;;;;;;27.60;16.97;;;1.80;99.90;;;1.31;nan;96788.66;4930901;29;20486;-77
2022/12/09 10:24:16;;;;;;;30.57;16.47;;;1.90;99.90;;;1.37;nan;96786.34;4930737;29;20466;-76
2022/12/09 10:26:54;;;;;;;26.63;16.50;;;1.90;99.90;;;1.33;nan;96789.59;4930583;29;20450;-78
2022/12/09 10:29:39;;;;;;;27.43;15.73;;;1.90;99.90;;;1.31;nan;96781.06;4931417;29;20466;-77
2022/12/09 10:32:14;;;;;;;28.17;16.00;;;1.90;99.90;;;1.36;nan;96781.22;4931039;29;20502;-76
2022/12/09 10:34:41;;;;;;;28.20;16.63;;;2.00;99.90;;;1.43;nan;96776.41;4930985;29;20445;-77
2022/12/09 10:37:26;;;;;;;30.33;19.03;;;2.00;99.90;;;1.49;nan;96773.19;4931242;29;20468;-76
2022/12/09 10:40:11;;;;;;;28.30;16.33;;;2.00;99.90;;;1.52;nan;96773.28;4932061;29;20840;-77
2022/12/09 10:45:32;;;;;;;28.53;17.40;;;2.10;99.90;;;1.47;nan;96777.34;4931850;29;20473;-78
2022/12/09 10:48:00;;;;;;;28.80;16.50;;;2.10;99.90;;;1.51;nan;96785.91;4930901;29;20821;-77
2022/12/09 10:50:34;;;;;;;26.70;16.30;;;2.10;99.90;;;1.63;nan;96783.75;4931269;29;20458;-77
2022/12/09 10:53:13;;;;;;;26.70;15.80;;;2.20;99.90;;;1.65;nan;96780.47;4932737;29;21016;-76
2022/12/09 10:55:49;;;;;;;27.43;15.90;;;2.20;99.90;;;1.61;nan;96773.56;4934164;29;20796;-75
2022/12/09 10:58:19;;;;;;;27.77;16.23;;;2.20;99.90;;;1.61;nan;96768.50;4932145;29;20434;-78
2022/12/09 11:01:06;;;;;;;30.10;17.53;;;2.20;99.90;;;1.57;nan;96764.16;4931563;29;20490;-76
2022/12/09 11:03:37;;;;;;;26.33;16.07;;;2.20;99.90;;;1.57;nan;96759.09;4931717;29;20460;-75
2022/12/09 11:06:21;;;;;;;29.73;17.17;;;2.20;99.90;;;1.60;nan;96751.59;4930633;29;20813;-75
2022/12/09 11:08:56;;;;;;;28.47;16.53;;;2.20;99.90;;;1.70;nan;96747.66;4931532;29;20438;-77
2022/12/09 11:11:41;;;;;;;29.47;15.50;;;2.30;99.90;;;1.66;nan;96740.81;4930827;29;20486;-76
2022/12/09 11:14:24;;;;;;;32.80;15.80;;;2.30;99.90;;;1.72;nan;96744.38;4931835;29;20469;-76
2022/12/09 11:16:55;;;;;;;29.10;17.33;;;2.30;99.90;;;1.77;nan;96752.13;4934190;29;20468;-76
2022/12/09 11:19:33;;;;;;;30.70;16.23;;;2.40;99.90;;;1.77;nan;96757.19;4934188;29;20454;-76
2022/12/09 11:22:23;;;;;;;27.23;15.70;;;2.40;99.90;;;1.75;nan;96763.88;4934167;29;20474;-76
2022/12/09 11:24:55;;;;;;;26.10;14.47;;;2.40;99.90;;;1.82;nan;96750.56;4934613;29;20864;-76
2022/12/09 11:27:29;;;;;;;31.80;17.13;;;2.40;99.90;;;1.88;nan;96754.97;4933075;29;20447;-76
2022/12/09 11:30:12;;;;;;;35.30;17.77;;;2.40;99.90;;;1.95;nan;96747.59;4934208;29;20781;-76
2022/12/09 11:32:58;;;;;;;29.97;16.73;;;2.50;99.90;;;1.97;nan;96742.56;4932456;29;20489;-76
2022/12/09 11:35:35;;;;;;;29.90;16.93;;;2.50;99.90;;;2.03;nan;96751.19;4932786;29;20455;-76
2022/12/09 11:38:16;;;;;;;27.30;16.23;;;2.50;99.90;;;2.04;nan;96746.97;4931846;29;20442;-76
2022/12/09 11:41:00;;;;;;;26.77;16.47;;;2.60;99.90;;;1.93;nan;96740.75;4932170;29;20474;-76
2022/12/09 11:43:35;;;;;;;30.37;16.87;;;2.60;99.90;;;2.02;nan;96735.94;4932030;29;20466;-76
2022/12/09 11:46:16;;;;;;;30.40;16.37;;;2.60;99.90;;;2.02;nan;96738.47;4931722;29;20464;-76
2022/12/09 11:48:53;;;;;;;29.43;16.43;;;2.60;99.90;;;2.08;nan;96733.59;4931899;29;20439;-76
2022/12/09 11:51:25;;;;;;;28.77;16.87;;;2.70;99.90;;;2.11;nan;96727.75;4931740;29;20849;-77
2022/12/09 11:54:01;;;;;;;29.20;17.20;;;2.70;99.90;;;2.17;nan;96718.66;4932844;29;20589;-76
2022/12/09 11:56:30;;;;;;;29.30;16.47;;;2.70;99.90;;;2.11;nan;96710.00;4931743;29;20947;-80
2022/12/09 11:59:03;;;;;;;27.63;17.53;;;2.70;99.90;;;2.28;nan;96713.88;4932153;29;20451;-76
2022/12/09 12:01:45;;;;;;;30.03;17.93;;;2.80;99.90;;;2.38;nan;96720.91;4930229;29;21198;-76
2022/12/09 12:04:23;;;;;;;31.07;17.03;;;2.80;99.90;;;2.44;nan;96718.53;4930124;29;20489;-75
2022/12/09 12:06:59;;;;;;;31.70;17.73;;;2.90;99.90;;;2.41;nan;96702.38;4930680;29;20481;-76
2022/12/09 12:09:35;;;;;;;26.50;15.77;;;2.90;99.90;;;2.41;nan;96702.38;4930499;29;20946;-77
2022/12/09 12:12:14;;;;;;;31.37;17.80;;;2.90;99.90;;;2.46;nan;96706.75;4930554;29;20563;-76
2022/12/09 12:14:43;;;;;;;28.17;16.43;;;3.00;99.90;;;2.51;nan;96707.72;4931040;29;20449;-75
2022/12/09 12:17:21;;;;;;;30.67;17.20;;;3.00;99.90;;;2.59;nan;96710.47;4929762;29;20517;-75
2022/12/09 12:19:51;;;;;;;34.00;19.33;;;3.10;99.90;;;2.64;nan;96708.91;4931142;29;20551;-76
2022/12/09 12:22:42;;;;;;;28.40;17.03;;;3.10;99.90;;;2.64;nan;96708.91;4930858;29;20489;-76
2022/12/09 12:25:51;;;;;;;31.80;17.70;;;3.10;99.90;;;2.63;nan;96702.13;4930229;29;20443;-76
2022/12/09 12:28:53;;;;;;;29.53;17.47;;;3.20;99.90;;;2.65;nan;96702.16;4928795;29;20462;-76
2022/12/09 12:31:45;;;;;;;29.90;16.97;;;3.10;99.90;;;2.63;nan;96698.72;4929771;29;20481;-75
2022/12/09 12:34:27;;;;;;;29.30;16.33;;;3.20;99.90;;;2.62;nan;96686.84;4929615;29;20502;-75
2022/12/09 12:37:12;;;;;;;30.13;17.20;;;3.20;99.90;;;2.71;nan;96693.03;4927596;29;20451;-75
2022/12/09 12:40:03;;;;;;;26.40;16.00;;;3.20;99.90;;;2.55;nan;96680.75;4928007;29;20473;-75
2022/12/09 12:46:15;;;;;;;27.40;16.80;;;3.20;99.90;;;2.52;nan;96681.56;4927795;29;20484;-75
2022/12/09 12:48:58;;;;;;;32.03;17.43;;;3.10;99.90;;;2.55;nan;96679.13;4927854;29;20481;-75
2022/12/09 12:51:38;;;;;;;34.67;20.97;;;3.10;99.90;;;2.63;nan;96688.56;4928316;29;20569;-75
2022/12/09 12:54:21;;;;;;;30.70;17.43;;;3.20;99.90;;;2.77;nan;96690.66;4930015;29;20862;-77
2022/12/09 12:57:02;;;;;;;33.83;17.80;;;3.20;99.90;;;2.78;nan;96683.91;4929097;29;20462;-77
2022/12/09 12:59:40;;;;;;;26.33;16.00;;;3.30;99.90;;;2.76;nan;96691.47;4930189;29;20464;-77
2022/12/09 13:02:28;;;;;;;32.23;16.90;;;3.30;99.90;;;2.69;nan;96699.75;4930047;29;20486;-77
2022/12/09 13:05:03;;;;;;;28.87;16.30;;;3.30;99.90;;;2.73;nan;96693.91;4930862;29;20444;-77
2022/12/09 13:07:38;;;;;;;26.43;15.60;;;3.30;99.90;;;2.76;nan;96701.63;4929875;29;20480;-77
2022/12/09 13:10:17;;;;;;;28.10;15.83;;;3.30;99.90;;;2.81;nan;96709.34;4931604;29;20442;-77
2022/12/09 13:12:57;;;;;;;34.00;17.93;;;3.30;99.90;;;2.88;nan;96711.22;4930571;29;20501;-77
2022/12/09 13:15:36;;;;;;;33.53;17.20;;;3.40;99.90;;;2.93;nan;96713.84;4930458;29;20951;-77
2022/12/09 13:18:14;;;;;;;31.33;17.00;;;3.40;99.90;;;2.89;nan;96711.25;4930450;29;20453;-77
2022/12/09 13:20:48;;;;;;;27.57;15.93;;;3.40;99.90;;;2.91;nan;96713.81;4930793;29;20477;-77
2022/12/09 13:23:39;;;;;;;32.70;17.80;;;3.40;99.90;;;2.92;nan;96709.59;4931654;29;20438;-78
2022/12/09 13:26:25;;;;;;;28.33;16.90;;;3.40;99.90;;;2.94;nan;96705.41;4931164;29;20535;-77
2022/12/09 13:29:03;;;;;;;36.07;18.47;;;3.50;99.90;;;2.94;nan;96713.88;4932571;29;20449;-79
2022/12/09 13:31:34;;;;;;;35.03;17.80;;;3.50;99.90;;;2.95;nan;96704.59;4932745;29;20478;-79
2022/12/09 13:34:23;;;;;;;36.57;18.50;;;3.50;99.90;;;3.02;nan;96706.47;4933301;29;20478;-78
2022/12/09 13:36:50;;;;;;;39.67;18.27;;;3.50;99.90;;;2.93;nan;96698.63;4929796;29;20465;-68
2022/12/09 13:39:56;;;;;;;32.87;18.03;;;3.50;99.90;;;2.93;nan;96701.16;4927877;29;20840;-70
2022/12/09 13:42:56;;;;;;;36.83;18.40;;;3.50;99.90;;;2.88;nan;96711.22;4928043;29;20486;-70
2022/12/09 13:45:34;;;;;;;37.97;19.23;;;3.50;99.90;;;2.88;nan;96708.69;4928211;29;20472;-70
2022/12/09 13:48:26;;;;;;;35.33;18.10;;;3.40;99.90;;;2.88;nan;96709.53;4933667;29;20464;-80
2022/12/09 13:50:58;;;;;;;35.43;18.87;;;3.40;99.90;;;2.89;nan;96710.41;4933345;29;20482;-77
2022/12/09 13:53:31;;;;;;;33.57;18.40;;;3.40;99.90;;;2.97;nan;96711.44;4933597;29;20521;-76
2022/12/09 13:56:02;;;;;;;37.00;19.13;;;3.50;99.90;;;2.97;nan;96716.53;4932828;29;20461;-77
2022/12/09 13:58:46;;;;;;;39.90;20.10;;;3.50;99.90;;;3.05;nan;96714.16;4935140;29;20458;-77
2022/12/09 14:01:22;;;;;;;37.30;19.33;;;3.50;99.90;;;3.05;nan;96709.94;4934315;29;20489;-77
2022/12/09 14:04:07;;;;;;;43.80;20.40;;;3.50;99.90;;;3.01;nan;96713.22;4934548;29;20464;-77
2022/12/09 14:06:48;;;;;;;42.70;21.30;;;3.50;99.90;;;3.07;nan;96717.63;4933024;29;20474;-77
2022/12/09 14:09:32;;;;;;;41.10;21.50;;;3.60;99.90;;;3.05;nan;96717.53;4932667;29;20454;-76
2022/12/09 14:12:00;;;;;;;45.73;23.00;;;3.60;99.90;;;2.93;nan;96717.25;4931731;29;20473;-77
2022/12/09 14:15:00;;;;;;;43.03;22.53;;;3.50;99.90;;;3.06;nan;96715.88;4932014;29;20532;-77
2022/12/09 14:18:00;;;;;;;48.23;22.63;;;3.60;99.90;;;3.08;nan;96717.66;4931105;29;20468;-77
2022/12/09 14:20:39;;;;;;;44.87;23.00;;;3.60;99.90;;;3.13;nan;96712.66;4931874;29;20945;-77
2022/12/09 14:23:25;;;;;;;47.50;23.50;;;3.60;99.90;;;3.18;nan;96719.59;4931546;29;20449;-77
2022/12/09 14:26:05;;;;;;;49.27;24.03;;;3.60;99.90;;;3.24;nan;96713.78;4932175;29;20457;-77
2022/12/09 14:28:55;;;;;;;49.87;24.30;;;3.70;99.90;;;3.15;nan;96706.78;4931468;29;20464;-77
2022/12/09 14:31:57;;;;;;;51.77;24.97;;;3.70;99.90;;;3.22;nan;96717.09;4928204;29;20921;-77
2022/12/09 14:34:42;;;;;;;49.93;23.70;;;3.70;99.90;;;3.18;nan;96724.66;4921789;29;20504;-76
2022/12/09 14:37:36;;;;;;;55.50;26.80;;;3.70;99.90;;;3.20;nan;96724.69;4930089;29;20476;-71
2022/12/09 14:40:35;;;;;;;49.97;23.60;;;3.70;99.90;;;3.14;nan;96717.78;4931564;29;20458;-76
2022/12/09 14:43:27;;;;;;;46.30;25.10;;;3.70;99.90;;;3.13;nan;96716.06;4931888;29;20454;-75
2022/12/09 14:45:59;;;;;;;47.37;24.47;;;3.60;99.90;;;3.14;nan;96727.94;4931969;29;20474;-75
2022/12/09 14:48:31;;;;;;;51.90;24.63;;;3.60;99.90;;;3.14;nan;96730.47;4932362;29;20446;-74
2022/12/09 14:51:16;;;;;;;49.43;26.03;;;3.70;99.90;;;3.19;nan;96728.06;4931110;29;20528;-74
2022/12/09 14:53:49;;;;;;;53.57;25.50;;;3.70;99.90;;;3.28;nan;96724.88;4930324;29;20865;-75
2022/12/09 14:56:22;;;;;;;55.60;26.70;;;3.70;99.90;;;3.27;nan;96725.69;4930657;29;20498;-75
2022/12/09 14:58:54;;;;;;;48.60;23.50;;;3.70;99.90;;;3.22;nan;96729.81;4931138;29;20462;-74
2022/12/09 15:01:21;;;;;;;51.50;24.30;;;3.70;99.90;;;3.24;nan;96744.25;4930703;29;20492;-76
2022/12/09 15:03:54;;;;;;;40.37;22.13;;;3.70;99.90;;;3.32;nan;96744.44;4931463;29;20463;-75
2022/12/09 15:06:25;;;;;;;49.15;28.13;;;3.80;99.90;;;3.32;nan;96744.44;4929429;29;20443;-74
2022/12/09 15:08:57;;;;;;;49.70;27.00;;;3.90;99.90;;;3.25;nan;96740.03;4931130;29;20752;-73
2022/12/09 15:11:30;;;;;;;49.53;26.53;;;4.00;99.90;;;3.27;nan;96751.06;4931574;29;20474;-76
2022/12/09 15:14:25;;;;;;;47.73;26.00;;;3.90;99.90;;;3.34;nan;96753.81;4931683;29;20490;-76
2022/12/09 15:16:50;;;;;;;50.07;24.80;;;3.90;99.90;;;3.35;nan;96755.50;4930193;29;21236;-74
2022/12/09 15:19:21;;;;;;;44.80;24.40;;;3.90;99.90;;;3.33;nan;96756.31;4933774;29;20473;-77
2022/12/09 15:21:49;;;;;;;46.03;23.67;;;3.80;99.90;;;3.24;nan;96751.84;4949934;28;20485;-74
2022/12/09 15:24:18;;;;;;;39.40;21.50;;;3.80;99.90;;;3.25;nan;96752.72;4949556;28;20453;-75
2022/12/09 15:26:58;;;;;;;42.33;23.40;;;3.80;99.90;;;3.27;nan;96754.50;4949035;28;20467;-75
2022/12/09 15:29:31;;;;;;;50.23;23.87;;;3.80;99.90;;;3.21;nan;96756.00;4949797;28;20442;-75
2022/12/09 15:32:01;;;;;;;48.13;23.40;;;3.80;99.90;;;3.16;nan;96759.28;4950287;28;20488;-75
2022/12/09 15:34:29;;;;;;;44.90;23.97;;;3.70;99.90;;;3.23;nan;96765.38;4950113;28;21080;-75
2022/12/09 15:37:02;;;;;;;44.23;23.23;;;3.70;99.90;;;3.18;nan;96770.34;4949419;28;20557;-77
2022/12/09 15:39:36;;;;;;;43.63;21.73;;;3.70;99.90;;;3.16;nan;96766.03;4949743;28;20961;-75
2022/12/09 15:42:10;;;;;;;40.70;22.80;;;3.70;99.90;;;3.11;nan;96778.63;4948956;28;20473;-76
2022/12/09 15:44:44;;;;;;;48.43;24.83;;;3.70;99.90;;;3.20;nan;96775.47;4949469;28;20442;-76
2022/12/09 15:47:22;;;;;;;47.93;25.70;;;3.70;99.90;;;3.23;nan;96770.47;4948219;28;20465;-75
2022/12/09 15:50:00;;;;;;;55.70;27.17;;;3.70;99.90;;;3.11;nan;96771.03;4948536;28;20446;-75
2022/12/09 15:52:33;;;;;;;51.97;24.40;;;3.70;99.90;;;3.16;nan;96768.56;4948867;28;20473;-76
2022/12/09 15:55:06;;;;;;;49.07;24.80;;;3.70;99.90;;;3.15;nan;96767.72;4948940;28;21040;-75
2022/12/09 15:57:36;;;;;;;41.20;24.07;;;3.70;99.90;;;3.22;nan;96768.75;4948971;28;20520;-77
2022/12/09 16:00:07;;;;;;;38.97;23.93;;;3.70;99.90;;;3.21;nan;96766.16;4949726;28;20479;-76
2022/12/09 16:02:37;;;;;;;40.50;23.53;;;3.70;99.90;;;3.21;nan;96776.31;4949559;28;21253;-73
2022/12/09 16:05:08;;;;;;;44.00;23.77;;;3.70;99.90;;;3.23;nan;96767.91;4949037;28;20434;-74
2022/12/09 16:07:37;;;;;;;43.90;24.97;;;3.70;99.90;;;3.12;nan;96776.94;4948909;28;20462;-75